Wakefield, KS

8:44 PM CDT on August 22, 2014 (GMT -0500)
KKSWAKEF2 | Change Station
CLOSE
Current Station
Personal Weather Station
Location: Wakefield, KS
Elevation: 1272 ft
Nearby Weather Stations
Active Advisory: Heat Advisory Active Notice: Record Report

Elev 1272 ft 39.22 °N, 97.02 °W | Updated 0 second ago

Clear
Clear
83.8 °F
Feels Like 88 °F
N
0.0
Wind Variable Wind from ESE
Gusts 0.0 mph

Today
High -- | Low -- °F
--% Chance of Precip.
Yesterday
High -- | Low -- °F
Precip. -- in
6:47 AM 8:13 PM
Waning Crescent, 6% visible
Pressure 29.81 in
Visibility 10.0 miles
Clouds Clear
Heat Index 88 °F
Dew Point 70 °F
Humidity 63%
Rainfall 0.08 in
Snow Depth Not available.
UV 0 out of 12
Pollen 9.30 out of 12
Air Quality Not available.
Flu Activity Not available.
METAR KFRI 230058Z AUTO 12006KT 10SM CLR 29/19 A2984 RMK AO2 SLP092 T02860193

More Conditions Fewer Conditions

Pressure 29.81 in
Visibility 10.0 miles
Clouds Clear
Heat Index 88 °F
Dew Point 70 °F
Humidity 63%
Rainfall 0.08 in
Snow Depth Not available.
UV 0 out of 12
Pollen 9.30 out of 12
Air Quality Not available.
Flu Activity Not available.
METAR KFRI 230058Z AUTO 12006KT 10SM CLR 29/19 A2984 RMK AO2 SLP092 T02860193

More Conditions Fewer Conditions

10-Day Weather Forecast

Almanac

Astronomy

Aug. 22, 2014 Rise Set
Actual Time 6:47 AM CDT 8:13 PM CDT
Civil Twilight 6:19 AM CDT 8:41 PM CDT
Nautical Twilight 5:45 AM CDT 9:15 PM CDT
Astronomical Twilight 5:10 AM CDT 9:50 PM CDT
Moon 4:11 AM CDT (8/22) 6:22 PM CDT (8/22)
Length of Visible Light 14h 22m
Length of Day
13h 26m
Tomorrow will be 2m 21s shorter.
Waning Crescent, 6% of the Moon is Illuminated
Today
Waning Crescent
Aug 25
New
Sep 2
First Quarter
Sep 8
Full
Sep 15
Last Quarter

Today's Extremes

State Highs State Lows

Community

WunderPhotos

Upload Photos

1,746,337 photos uploaded!

WunderBlogs® & News

Nearby

Snow Depth

Station Depth Elevation
No new snow has been reported.

Earthquake Activity

City Distance Mag. Time & Date
No recent earthquake activity has been reported nearby.
Minimum magnitude displayed is 2.5.

Coastal Water Temperatures

Place Temperature
No Stations Reporting

Nearby Weather Stations